createdAt,value
2023-02-23T00:02:04.777Z,8.60
2023-02-23T00:07:06.763Z,8.60
2023-02-23T00:12:10.915Z,8.50
2023-02-23T00:17:14.652Z,8.50
2023-02-23T00:22:17.086Z,8.50
2023-02-23T00:27:20.614Z,8.50
2023-02-23T00:32:24.582Z,8.50
2023-02-23T00:37:26.768Z,8.40
2023-02-23T00:42:32.553Z,8.40
2023-02-23T00:47:35.926Z,8.50
2023-02-23T00:52:37.889Z,8.40
2023-02-23T00:57:40.565Z,8.30
2023-02-23T01:02:42.515Z,8.50
2023-02-23T01:07:47.315Z,8.30
2023-02-23T01:12:51.336Z,8.30
2023-02-23T01:17:53.408Z,8.10
2023-02-23T01:22:55.201Z,8.10
2023-02-23T01:27:56.950Z,8.10
2023-02-23T01:32:59.188Z,8.10
2023-02-23T01:38:01.719Z,7.90
2023-02-23T01:43:11.819Z,8.00
2023-02-23T01:48:24.305Z,7.80
2023-02-23T01:53:29.339Z,7.80
2023-02-23T01:58:33.148Z,7.90
2023-02-23T02:03:40.187Z,7.80
2023-02-23T02:08:47.044Z,7.80
2023-02-23T02:13:49.160Z,7.80
2023-02-23T02:19:37.846Z,7.80
2023-02-23T02:24:52.541Z,7.80
2023-02-23T02:30:00.530Z,7.80
2023-02-23T02:35:20.632Z,7.80
2023-02-23T02:40:37.242Z,7.80
2023-02-23T02:45:48.448Z,7.80
2023-02-23T02:51:12.178Z,7.90
2023-02-23T02:56:19.904Z,8.00
2023-02-23T03:01:40.881Z,8.00
2023-02-23T03:07:24.396Z,8.00
2023-02-23T03:13:15.846Z,8.10
2023-02-23T03:18:53.744Z,8.20
2023-02-23T03:24:24.157Z,8.20
2023-02-23T03:30:02.982Z,8.20
2023-02-23T03:35:35.601Z,8.30
2023-02-23T03:40:59.036Z,8.40
2023-02-23T03:46:21.483Z,8.30
2023-02-23T03:51:45.247Z,8.40
2023-02-23T03:57:10.709Z,8.50
2023-02-23T04:02:34.267Z,8.60
2023-02-23T04:07:58.325Z,8.60
2023-02-23T04:13:18.323Z,8.70
2023-02-23T04:18:32.897Z,8.80
2023-02-23T04:23:36.150Z,8.90
2023-02-23T04:28:38.221Z,8.90
2023-02-23T04:33:40.052Z,9.00
2023-02-23T04:38:46.820Z,9.00
2023-02-23T04:43:49.465Z,9.10
2023-02-23T04:48:51.342Z,9.10
2023-02-23T04:53:53.455Z,9.10
2023-02-23T04:58:55.231Z,9.20
2023-02-23T05:03:57.105Z,9.20
2023-02-23T05:08:58.905Z,9.20
2023-02-23T05:14:01.700Z,9.30
2023-02-23T05:19:03.542Z,9.40
2023-02-23T05:24:05.937Z,9.40
2023-02-23T05:29:07.739Z,9.30
2023-02-23T05:34:10.240Z,9.30
2023-02-23T05:39:12.133Z,9.20
2023-02-23T05:44:14.017Z,9.10
2023-02-23T05:49:15.922Z,9.10
2023-02-23T05:54:18.092Z,9.10
2023-02-23T05:59:19.937Z,9.10
2023-02-23T06:04:23.379Z,9.10
2023-02-23T06:09:25.509Z,9.10
2023-02-23T06:14:29.145Z,9.10
2023-02-23T06:19:31.949Z,9.00
2023-02-23T06:24:35.418Z,9.00
2023-02-23T06:29:38.226Z,9.00
2023-02-23T06:34:40.496Z,9.00
2023-02-23T06:39:42.688Z,9.10
2023-02-23T06:44:44.454Z,9.20
2023-02-23T06:49:48.202Z,9.10
2023-02-23T06:54:50.569Z,9.30
2023-02-23T06:59:53.402Z,9.40
2023-02-23T07:04:55.273Z,9.50
2023-02-23T07:09:58.731Z,9.60
2023-02-23T07:15:00.597Z,9.60
2023-02-23T07:20:03.105Z,9.70
2023-02-23T07:25:06.820Z,9.80
2023-02-23T07:30:10.286Z,9.90
2023-02-23T07:35:13.705Z,9.90
2023-02-23T07:40:17.555Z,10.00
2023-02-23T07:45:19.617Z,10.20
2023-02-23T07:50:21.638Z,10.30
2023-02-23T07:55:23.732Z,10.40
2023-02-23T08:00:27.198Z,10.60
2023-02-23T08:05:29.155Z,10.70
2023-02-23T08:10:31.199Z,10.80
2023-02-23T08:15:33.000Z,10.90
2023-02-23T08:20:35.416Z,11.00
2023-02-23T08:25:37.460Z,11.20
2023-02-23T08:30:41.706Z,11.30
2023-02-23T08:35:44.457Z,11.40
2023-02-23T08:40:47.555Z,11.50
2023-02-23T08:45:49.382Z,11.60
2023-02-23T08:50:55.540Z,11.80
2023-02-23T08:56:03.291Z,12.00
2023-02-23T09:01:06.048Z,12.10
2023-02-23T09:06:12.711Z,12.20
2023-02-23T09:11:14.481Z,12.40
2023-02-23T09:16:17.052Z,12.60
2023-02-23T09:21:22.458Z,12.70
2023-02-23T09:26:26.305Z,12.90
2023-02-23T09:31:28.895Z,13.10
2023-02-23T09:36:31.640Z,13.30
2023-02-23T09:41:56.858Z,13.40
2023-02-23T09:47:11.889Z,13.50
2023-02-23T09:52:24.051Z,13.60
2023-02-23T09:57:40.027Z,13.60
2023-02-23T10:03:11.077Z,13.60
2023-02-23T10:08:41.930Z,13.60
2023-02-23T10:13:46.760Z,13.70
2023-02-23T10:19:32.486Z,13.80
2023-02-23T10:24:39.707Z,13.90
2023-02-23T10:29:48.345Z,14.00
2023-02-23T10:34:54.089Z,14.00
2023-02-23T10:39:55.994Z,14.00
2023-02-23T10:44:59.088Z,14.10
2023-02-23T10:50:02.242Z,14.30
2023-02-23T10:55:09.965Z,14.30
2023-02-23T11:00:20.354Z,14.50
2023-02-23T11:05:36.421Z,14.70
2023-02-23T11:10:38.482Z,14.80
2023-02-23T11:15:50.694Z,14.00
2023-02-23T11:20:53.456Z,14.40
2023-02-23T11:26:03.880Z,14.50
2023-02-23T11:31:22.690Z,13.60
2023-02-23T11:36:32.752Z,14.10
2023-02-23T11:41:37.247Z,14.60
2023-02-23T11:46:39.808Z,14.50
2023-02-23T11:51:49.166Z,14.60
2023-02-23T11:56:52.273Z,15.00
2023-02-23T12:01:59.619Z,15.10
2023-02-23T12:07:29.694Z,15.00
2023-02-23T12:12:36.429Z,14.50
2023-02-23T12:17:49.081Z,14.70
2023-02-23T12:23:05.913Z,14.90
2023-02-23T12:28:38.098Z,14.80
2023-02-23T12:33:46.663Z,14.80
2023-02-23T12:38:56.276Z,14.60
2023-02-23T12:44:15.455Z,14.40
2023-02-23T12:49:28.355Z,14.80
2023-02-23T12:54:33.358Z,14.90
2023-02-23T12:59:53.532Z,14.80
2023-02-23T13:05:17.109Z,14.70
2023-02-23T13:10:24.926Z,14.80
2023-02-23T13:15:44.803Z,14.40
2023-02-23T13:21:10.214Z,14.30
2023-02-23T13:26:29.429Z,14.30
2023-02-23T13:31:44.154Z,14.30
2023-02-23T13:36:46.462Z,13.90
2023-02-23T13:42:00.283Z,14.00
2023-02-23T13:47:16.407Z,13.80
2023-02-23T13:52:38.154Z,13.60
2023-02-23T13:57:44.788Z,13.70
2023-02-23T14:02:49.312Z,13.60
2023-02-23T14:08:03.072Z,14.00
2023-02-23T14:13:14.436Z,14.00
2023-02-23T14:18:21.851Z,14.20
2023-02-23T14:23:26.095Z,14.20
2023-02-23T14:28:31.542Z,14.10
2023-02-23T14:33:43.734Z,14.10
2023-02-23T14:38:48.195Z,14.20
2023-02-23T14:43:59.400Z,14.00
2023-02-23T14:54:33.538Z,14.00
2023-02-23T14:59:45.068Z,14.00
2023-02-23T15:04:48.450Z,13.80
2023-02-23T15:09:53.915Z,13.70
2023-02-23T15:15:01.442Z,13.50
2023-02-23T15:20:16.187Z,13.50
2023-02-23T15:25:28.366Z,13.40
2023-02-23T15:30:35.718Z,13.40
2023-02-23T15:35:57.887Z,13.10
2023-02-23T15:41:08.808Z,13.00
2023-02-23T15:46:24.109Z,12.90
2023-02-23T15:51:58.330Z,12.40
2023-02-23T15:57:07.895Z,12.30
2023-02-23T16:02:19.560Z,12.10
2023-02-23T16:07:28.083Z,11.80
2023-02-23T16:12:40.519Z,11.70
2023-02-23T16:17:48.561Z,11.60
2023-02-23T16:22:55.141Z,11.60
2023-02-23T16:28:09.221Z,11.50
2023-02-23T16:33:30.073Z,11.60
2023-02-23T16:38:42.867Z,11.50
2023-02-23T16:43:46.819Z,11.40
2023-02-23T16:48:48.984Z,11.40
2023-02-23T16:53:54.870Z,11.30
2023-02-23T16:59:02.881Z,11.20
2023-02-23T17:04:06.376Z,11.10
2023-02-23T17:09:13.564Z,11.20
2023-02-23T17:14:29.228Z,11.00
2023-02-23T17:19:32.481Z,11.10
2023-02-23T17:24:34.669Z,11.10
2023-02-23T17:29:37.012Z,11.00
2023-02-23T17:34:40.508Z,11.20
2023-02-23T17:39:42.533Z,11.30
2023-02-23T17:44:45.690Z,11.10
2023-02-23T17:49:49.129Z,11.00
2023-02-23T17:54:57.946Z,11.10
2023-02-23T18:00:00.748Z,11.10
2023-02-23T18:05:10.531Z,10.90
2023-02-23T18:10:14.520Z,10.80
2023-02-23T18:15:18.849Z,10.90
2023-02-23T18:20:25.777Z,11.00
2023-02-23T18:25:29.652Z,10.90
2023-02-23T18:30:31.626Z,10.80
2023-02-23T18:35:37.825Z,10.70
2023-02-23T18:40:40.894Z,10.70
2023-02-23T18:45:43.840Z,10.60
2023-02-23T18:50:46.766Z,10.50
2023-02-23T18:55:50.929Z,10.30
2023-02-23T19:00:54.982Z,10.30
2023-02-23T19:05:58.946Z,10.20
2023-02-23T19:11:00.684Z,10.10
2023-02-23T19:16:08.492Z,10.00
2023-02-23T19:21:10.265Z,9.80
2023-02-23T19:26:26.212Z,10.00
2023-02-23T19:31:32.763Z,9.90
2023-02-23T19:36:38.200Z,10.00
2023-02-23T19:41:42.431Z,10.00
2023-02-23T19:46:46.831Z,9.90
2023-02-23T19:51:53.208Z,9.80
2023-02-23T19:56:56.810Z,9.80
2023-02-23T20:02:05.731Z,9.80
2023-02-23T20:07:17.221Z,9.80
2023-02-23T20:17:36.116Z,9.70
2023-02-23T20:22:41.342Z,9.60
2023-02-23T20:27:46.501Z,9.60
2023-02-23T20:32:49.152Z,9.50
2023-02-23T20:37:54.134Z,9.60
2023-02-23T20:42:57.172Z,9.50
2023-02-23T20:48:01.419Z,9.50
2023-02-23T20:53:05.815Z,9.50
2023-02-23T20:58:08.023Z,9.40
2023-02-23T21:03:11.949Z,9.30
2023-02-23T21:08:19.093Z,9.40
2023-02-23T21:13:23.312Z,9.40
2023-02-23T21:18:26.495Z,9.40
2023-02-23T21:23:28.994Z,9.50
2023-02-23T21:28:32.193Z,9.30
2023-02-23T21:33:36.023Z,9.20
2023-02-23T21:38:39.555Z,9.10
2023-02-23T21:43:43.831Z,9.20
2023-02-23T21:48:46.312Z,9.30
2023-02-23T21:53:50.347Z,9.30
2023-02-23T21:58:55.393Z,9.30
2023-02-23T22:03:58.472Z,9.30
2023-02-23T22:09:01.219Z,9.20
2023-02-23T22:14:06.653Z,9.10
2023-02-23T22:19:09.045Z,9.20
2023-02-23T22:24:15.863Z,9.10
2023-02-23T22:29:23.430Z,9.00
2023-02-23T22:34:25.724Z,8.90
2023-02-23T22:39:33.869Z,8.80
2023-02-23T22:44:39.566Z,8.70
2023-02-23T22:55:01.026Z,8.80
2023-02-23T23:00:07.492Z,8.60
2023-02-23T23:05:09.748Z,8.60
2023-02-23T23:10:18.459Z,8.70
2023-02-23T23:15:20.244Z,8.60
2023-02-23T23:20:25.689Z,8.60
2023-02-23T23:25:31.983Z,8.70
2023-02-23T23:30:35.993Z,8.70
2023-02-23T23:35:49.037Z,8.70
2023-02-23T23:40:53.699Z,8.60
2023-02-23T23:45:56.942Z,8.60
2023-02-23T23:51:05.346Z,8.60
